createdAt,value
2019-06-27T00:00:43.947Z,79.72
2019-06-27T00:03:12.944Z,79.48
2019-06-27T00:05:41.829Z,79.69
2019-06-27T00:08:10.673Z,79.90
2019-06-27T00:10:39.422Z,79.26
2019-06-27T00:13:08.216Z,79.22
2019-06-27T00:15:37.013Z,79.41
2019-06-27T00:18:05.845Z,78.95
2019-06-27T00:20:34.691Z,79.24
2019-06-27T00:23:03.589Z,79.38
2019-06-27T00:25:32.357Z,79.60
2019-06-27T00:28:01.033Z,79.96
2019-06-27T00:30:29.882Z,79.48
2019-06-27T00:32:58.745Z,79.38
2019-06-27T00:35:27.475Z,79.61
2019-06-27T00:37:56.377Z,79.29
2019-06-27T00:40:25.221Z,79.26
2019-06-27T00:42:54.014Z,79.59
2019-06-27T00:45:22.906Z,79.38
2019-06-27T00:47:51.751Z,78.65
2019-06-27T00:50:20.618Z,79.07
2019-06-27T00:52:49.407Z,78.98
2019-06-27T00:55:18.166Z,78.83
2019-06-27T00:57:46.932Z,78.04
2019-06-27T01:00:16.617Z,77.57
2019-06-27T01:02:45.538Z,78.26
2019-06-27T01:05:14.587Z,77.76
2019-06-27T01:07:43.361Z,77.22
2019-06-27T01:10:12.826Z,77.60
2019-06-27T01:12:41.604Z,77.39
2019-06-27T01:15:10.458Z,77.53
2019-06-27T01:17:39.501Z,77.50
2019-06-27T01:20:08.698Z,77.90
2019-06-27T01:22:37.536Z,78.35
2019-06-27T01:25:08.713Z,77.88
2019-06-27T01:27:37.459Z,77.53
2019-06-27T01:30:10.729Z,77.70
2019-06-27T01:32:39.519Z,77.61
2019-06-27T01:35:08.708Z,77.43
2019-06-27T01:37:37.571Z,77.63
2019-06-27T01:40:08.611Z,77.81
2019-06-27T01:42:37.578Z,78.14
2019-06-27T01:45:09.369Z,78.29
2019-06-27T01:47:38.259Z,78.42
2019-06-27T01:50:08.970Z,79.29
2019-06-27T01:52:37.712Z,79.19
2019-06-27T01:55:07.835Z,78.87
2019-06-27T01:57:46.084Z,79.04
2019-06-27T02:00:10.083Z,79.29
2019-06-27T02:02:39.163Z,79.27
2019-06-27T02:05:08.797Z,79.15
2019-06-27T02:07:37.837Z,78.58
2019-06-27T02:10:09.007Z,78.21
2019-06-27T02:12:37.919Z,77.69
2019-06-27T02:15:11.216Z,77.55
2019-06-27T02:17:40.025Z,77.50
2019-06-27T02:20:11.469Z,78.10
2019-06-27T02:22:40.199Z,78.00
2019-06-27T02:25:10.043Z,77.96
2019-06-27T02:27:38.829Z,78.13
2019-06-27T02:30:08.430Z,78.27
2019-06-27T02:32:37.169Z,78.47
2019-06-27T02:35:08.146Z,77.84
2019-06-27T02:37:37.109Z,78.07
2019-06-27T02:40:07.199Z,78.23
2019-06-27T02:42:36.119Z,77.94
2019-06-27T02:45:06.916Z,78.19
2019-06-27T02:47:35.721Z,78.01
2019-06-27T02:50:07.396Z,78.14
2019-06-27T02:52:36.208Z,78.23
2019-06-27T02:55:07.253Z,78.44
2019-06-27T02:57:35.981Z,78.41
2019-06-27T03:00:07.330Z,78.77
2019-06-27T03:02:37.923Z,78.76
2019-06-27T03:05:09.400Z,78.87
2019-06-27T03:07:38.395Z,78.93
2019-06-27T03:10:11.466Z,78.73
2019-06-27T03:12:40.237Z,78.22
2019-06-27T03:15:10.717Z,78.11
2019-06-27T03:17:39.651Z,77.60
2019-06-27T03:20:09.609Z,78.06
2019-06-27T03:22:38.344Z,77.89
2019-06-27T03:25:07.380Z,77.85
2019-06-27T03:27:36.404Z,77.96
2019-06-27T03:30:07.512Z,77.11
2019-06-27T03:32:36.440Z,77.71
2019-06-27T03:35:06.325Z,77.37
2019-06-27T03:37:35.206Z,77.20
2019-06-27T03:40:06.836Z,76.70
2019-06-27T03:42:35.657Z,77.20
2019-06-27T03:45:15.325Z,76.44
2019-06-27T03:47:41.352Z,76.00
2019-06-27T03:50:10.766Z,76.43
2019-06-27T03:52:39.536Z,76.50
2019-06-27T03:55:08.468Z,76.14
2019-06-27T03:57:37.273Z,75.93
2019-06-27T04:00:07.763Z,75.68
2019-06-27T04:02:36.559Z,76.12
2019-06-27T04:05:07.480Z,76.24
2019-06-27T04:07:36.246Z,77.08
2019-06-27T04:10:05.515Z,75.55
2019-06-27T04:12:34.346Z,76.32
2019-06-27T04:15:03.351Z,74.26
2019-06-27T04:17:33.202Z,74.16
2019-06-27T04:20:01.953Z,74.58
2019-06-27T04:22:30.898Z,75.52
2019-06-27T04:24:59.651Z,75.28
2019-06-27T04:27:28.547Z,75.83
2019-06-27T04:29:57.424Z,74.60
2019-06-27T04:32:26.268Z,74.27
2019-06-27T04:34:54.996Z,74.41
2019-06-27T04:37:23.821Z,74.02
2019-06-27T04:39:52.616Z,73.86
2019-06-27T04:42:21.361Z,73.37
2019-06-27T04:44:50.113Z,73.98
2019-06-27T04:47:18.948Z,73.54
2019-06-27T04:49:47.703Z,73.49
2019-06-27T04:52:16.602Z,73.48
2019-06-27T04:54:45.374Z,73.30
2019-06-27T04:57:14.162Z,73.40
2019-06-27T04:59:53.523Z,72.63
2019-06-27T05:02:13.561Z,72.98
2019-06-27T05:04:42.337Z,71.72
2019-06-27T05:07:11.173Z,71.89
2019-06-27T05:09:39.972Z,71.13
2019-06-27T05:12:08.873Z,71.15
2019-06-27T05:14:37.683Z,71.39
2019-06-27T05:17:06.663Z,71.35
2019-06-27T05:19:35.410Z,70.88
2019-06-27T05:22:05.154Z,71.67
2019-06-27T05:24:33.957Z,69.78
2019-06-27T05:27:02.726Z,67.23
2019-06-27T05:29:34.694Z,66.93
2019-06-27T05:32:04.325Z,68.63
2019-06-27T05:34:33.050Z,66.28
2019-06-27T05:37:01.757Z,66.50
2019-06-27T05:39:30.484Z,66.54
2019-06-27T05:41:59.210Z,58.51
2019-06-27T05:44:27.887Z,57.73
2019-06-27T05:46:56.627Z,60.21
2019-06-27T05:49:25.402Z,61.00
2019-06-27T05:51:54.174Z,64.28
2019-06-27T05:54:23.677Z,65.23
2019-06-27T05:56:52.636Z,65.78
2019-06-27T05:59:22.679Z,65.27
2019-06-27T06:01:51.966Z,66.26
2019-06-27T06:04:23.988Z,64.80
2019-06-27T06:06:54.092Z,64.94
2019-06-27T06:09:22.913Z,63.72
2019-06-27T06:11:51.809Z,63.38
2019-06-27T06:14:20.711Z,52.40
2019-06-27T06:16:49.504Z,46.29
2019-06-27T06:19:18.423Z,48.68
2019-06-27T06:21:47.317Z,48.04
2019-06-27T06:24:16.169Z,48.36
2019-06-27T06:26:44.973Z,52.73
2019-06-27T06:29:13.632Z,55.75
2019-06-27T06:31:44.445Z,57.82
2019-06-27T06:34:13.005Z,58.29
2019-06-27T06:36:41.861Z,58.14
2019-06-27T06:39:10.618Z,59.23
2019-06-27T06:41:39.386Z,56.78
2019-06-27T06:44:08.509Z,54.50
2019-06-27T06:46:37.346Z,51.53
2019-06-27T06:49:06.115Z,53.97
2019-06-27T06:51:34.890Z,46.89
2019-06-27T06:54:03.651Z,45.72
2019-06-27T06:56:32.450Z,47.44
2019-06-27T06:59:01.369Z,44.09
2019-06-27T07:01:30.130Z,44.63
2019-06-27T07:03:58.976Z,45.52
2019-06-27T07:06:27.889Z,47.38
2019-06-27T07:08:56.771Z,49.91
2019-06-27T07:11:25.846Z,50.21
2019-06-27T07:13:54.933Z,51.29
2019-06-27T07:16:24.009Z,48.99
2019-06-27T07:18:52.849Z,46.76
2019-06-27T07:21:21.857Z,45.82
2019-06-27T07:23:50.682Z,46.51
2019-06-27T07:26:23.077Z,48.26
2019-06-27T07:28:53.374Z,50.94
2019-06-27T07:31:22.243Z,52.37
2019-06-27T07:33:50.999Z,52.80
2019-06-27T07:36:19.779Z,50.93
2019-06-27T07:38:48.640Z,48.79
2019-06-27T07:41:17.433Z,48.74
2019-06-27T07:43:46.189Z,51.31
2019-06-27T07:46:25.289Z,49.05
2019-06-27T07:48:45.871Z,48.71
2019-06-27T07:51:14.889Z,50.88
2019-06-27T07:53:43.943Z,49.44
2019-06-27T07:56:12.996Z,51.71
2019-06-27T07:58:41.747Z,54.12
2019-06-27T08:01:10.555Z,50.63
2019-06-27T08:03:39.335Z,48.69
2019-06-27T08:06:08.112Z,47.63
2019-06-27T08:08:37.040Z,44.83
2019-06-27T08:11:05.858Z,45.10
2019-06-27T08:13:35.642Z,43.51
2019-06-27T08:16:04.459Z,45.37
2019-06-27T08:18:34.091Z,47.22
2019-06-27T08:21:03.712Z,47.14
2019-06-27T08:23:41.464Z,46.64
2019-06-27T08:26:06.504Z,46.72
2019-06-27T08:28:36.255Z,45.91
2019-06-27T08:31:06.230Z,45.76
2019-06-27T08:33:35.645Z,49.78
2019-06-27T08:36:07.090Z,50.20
2019-06-27T08:38:36.957Z,45.54
2019-06-27T08:41:05.779Z,45.23
2019-06-27T08:43:34.638Z,46.18
2019-06-27T08:46:03.393Z,44.75
2019-06-27T08:48:32.127Z,45.30
2019-06-27T08:51:00.926Z,46.55
2019-06-27T08:53:29.887Z,46.07
2019-06-27T08:55:58.775Z,46.30
2019-06-27T08:58:27.596Z,47.72
2019-06-27T09:00:56.434Z,45.93
2019-06-27T09:03:25.444Z,46.25
2019-06-27T09:05:54.299Z,47.60
2019-06-27T09:08:23.083Z,44.99
2019-06-27T09:10:51.871Z,45.96
2019-06-27T09:13:20.621Z,44.43
2019-06-27T09:15:49.574Z,47.05
2019-06-27T09:18:18.322Z,47.19
2019-06-27T09:20:47.148Z,47.44
2019-06-27T09:23:16.147Z,48.67
2019-06-27T09:25:44.956Z,49.18
2019-06-27T09:28:13.785Z,48.62
2019-06-27T09:30:42.582Z,46.26
2019-06-27T09:33:11.458Z,45.12
2019-06-27T09:35:40.220Z,46.62
2019-06-27T09:38:09.068Z,46.40
2019-06-27T09:40:39.471Z,47.83
2019-06-27T09:43:08.279Z,49.24
2019-06-27T09:45:38.050Z,49.28
2019-06-27T09:48:07.027Z,49.35
2019-06-27T09:50:35.853Z,46.92
2019-06-27T09:53:06.298Z,47.21
2019-06-27T09:55:37.572Z,47.38
2019-06-27T09:58:07.410Z,48.58
2019-06-27T10:00:36.267Z,49.61
2019-06-27T10:03:08.084Z,45.43
2019-06-27T10:05:36.970Z,46.92
2019-06-27T10:08:06.417Z,47.64
2019-06-27T10:10:35.173Z,47.55
2019-06-27T10:13:04.118Z,48.19
2019-06-27T10:15:32.913Z,49.17
2019-06-27T10:18:02.807Z,49.90
2019-06-27T10:20:32.252Z,47.01
2019-06-27T10:23:01.164Z,46.40
2019-06-27T10:25:30.066Z,44.40
2019-06-27T10:27:58.816Z,47.91
2019-06-27T10:30:27.809Z,47.25
2019-06-27T10:33:00.172Z,47.05
2019-06-27T10:35:28.416Z,45.54
2019-06-27T10:37:57.154Z,47.70
2019-06-27T10:40:25.992Z,46.86
2019-06-27T10:42:54.751Z,47.73
2019-06-27T10:45:23.488Z,47.59
2019-06-27T10:47:53.741Z,49.55
2019-06-27T10:50:22.550Z,48.66
2019-06-27T10:52:51.321Z,48.02
2019-06-27T10:55:22.275Z,48.30
2019-06-27T10:57:51.284Z,48.19
2019-06-27T11:00:20.892Z,49.83
2019-06-27T11:02:49.691Z,47.71
2019-06-27T11:05:18.569Z,47.28
2019-06-27T11:07:47.464Z,49.15
2019-06-27T11:10:16.933Z,48.04
2019-06-27T11:12:45.711Z,46.81
2019-06-27T11:15:15.301Z,46.83
2019-06-27T11:17:44.155Z,47.41
2019-06-27T11:20:15.467Z,46.14
2019-06-27T11:22:47.494Z,44.85
2019-06-27T11:25:16.400Z,45.65
2019-06-27T11:27:45.267Z,48.37
2019-06-27T11:30:15.958Z,49.75
2019-06-27T11:32:48.108Z,48.57
2019-06-27T11:35:17.512Z,49.13
2019-06-27T11:37:46.971Z,49.24
2019-06-27T11:40:23.274Z,47.92
2019-06-27T11:42:54.217Z,48.80
2019-06-27T11:45:23.008Z,48.19
2019-06-27T11:47:54.596Z,50.58
2019-06-27T11:50:23.383Z,49.17
2019-06-27T11:52:52.220Z,45.90
2019-06-27T11:55:26.384Z,44.63
2019-06-27T11:57:56.754Z,44.12
2019-06-27T12:00:25.973Z,48.19
2019-06-27T12:02:54.863Z,50.06
2019-06-27T12:05:23.674Z,46.24
2019-06-27T12:07:52.660Z,46.53
2019-06-27T12:10:21.971Z,46.78
2019-06-27T12:12:51.443Z,46.96
2019-06-27T12:15:20.249Z,48.28
2019-06-27T12:17:49.155Z,44.11
2019-06-27T12:20:19.057Z,43.22
2019-06-27T12:22:47.854Z,45.76
2019-06-27T12:25:17.895Z,47.53
2019-06-27T12:27:46.659Z,45.34
2019-06-27T12:30:15.940Z,47.59
2019-06-27T12:32:51.861Z,50.38
2019-06-27T12:35:15.288Z,48.13
2019-06-27T12:37:44.034Z,46.68
2019-06-27T12:40:13.957Z,45.65
2019-06-27T12:42:42.745Z,44.77
2019-06-27T12:45:11.860Z,45.31
2019-06-27T12:47:40.756Z,44.72
2019-06-27T12:50:10.354Z,45.51
2019-06-27T12:52:39.161Z,42.79
2019-06-27T12:55:08.084Z,41.33
2019-06-27T12:57:38.430Z,42.22
2019-06-27T13:00:10.191Z,42.58
2019-06-27T13:02:39.003Z,41.15
2019-06-27T13:05:07.964Z,42.52
2019-06-27T13:07:36.764Z,42.12
2019-06-27T13:10:09.173Z,44.49
2019-06-27T13:12:38.100Z,45.14
2019-06-27T13:15:08.093Z,43.39
2019-06-27T13:17:36.983Z,42.92
2019-06-27T13:20:07.967Z,42.74
2019-06-27T13:22:37.204Z,46.17
2019-06-27T13:25:14.695Z,46.14
2019-06-27T13:27:43.503Z,44.83
2019-06-27T13:30:12.515Z,45.11
2019-06-27T13:32:41.525Z,44.74
2019-06-27T13:35:10.404Z,43.85
2019-06-27T13:37:39.208Z,46.80
2019-06-27T13:40:09.554Z,46.08
2019-06-27T13:42:38.917Z,45.14
2019-06-27T13:45:09.474Z,46.21
2019-06-27T13:47:38.460Z,46.67
2019-06-27T13:50:08.604Z,49.02
2019-06-27T13:52:37.362Z,46.05
2019-06-27T13:55:06.688Z,46.61
2019-06-27T13:57:35.737Z,49.02
2019-06-27T14:00:08.609Z,51.08
2019-06-27T14:02:37.372Z,50.02
2019-06-27T14:05:07.401Z,49.89
2019-06-27T14:07:36.198Z,50.68
2019-06-27T14:10:07.545Z,48.90
2019-06-27T14:12:36.475Z,50.40
2019-06-27T14:15:07.512Z,52.17
2019-06-27T14:17:37.515Z,52.35
2019-06-27T14:20:08.835Z,52.66
2019-06-27T14:22:37.819Z,50.94
2019-06-27T14:25:07.662Z,52.40
2019-06-27T14:27:36.417Z,51.05
2019-06-27T14:30:07.894Z,51.53
2019-06-27T14:32:37.719Z,52.20
2019-06-27T14:35:15.375Z,52.20
2019-06-27T14:37:38.161Z,51.93
2019-06-27T14:40:09.927Z,50.71
2019-06-27T14:42:40.692Z,51.73
2019-06-27T14:45:10.119Z,51.62
2019-06-27T14:47:39.114Z,53.36
2019-06-27T14:50:11.623Z,52.04
2019-06-27T14:52:40.533Z,51.50
2019-06-27T14:55:14.130Z,50.34
2019-06-27T14:57:44.288Z,49.15
2019-06-27T15:00:14.411Z,49.02
2019-06-27T15:02:43.194Z,48.16
2019-06-27T15:05:13.721Z,47.75
2019-06-27T15:07:42.568Z,48.90
2019-06-27T15:10:12.422Z,49.82
2019-06-27T15:12:55.854Z,50.25
2019-06-27T15:15:13.814Z,51.75
2019-06-27T15:17:42.554Z,51.22
2019-06-27T15:20:12.649Z,50.27
2019-06-27T15:22:41.474Z,50.23
2019-06-27T15:25:10.499Z,49.40
2019-06-27T15:27:39.365Z,48.64
2019-06-27T15:30:10.472Z,49.72
2019-06-27T15:32:39.627Z,51.08
2019-06-27T15:35:09.330Z,51.17
2019-06-27T15:37:38.097Z,51.71
2019-06-27T15:40:11.607Z,50.75
2019-06-27T15:42:40.660Z,52.16
2019-06-27T15:45:10.038Z,52.16
2019-06-27T15:47:38.995Z,52.06
2019-06-27T15:50:09.380Z,52.92
2019-06-27T15:52:38.303Z,52.02
2019-06-27T15:55:12.045Z,51.67
2019-06-27T15:57:39.742Z,52.51
2019-06-27T16:00:09.290Z,52.59
2019-06-27T16:02:38.055Z,53.06
2019-06-27T16:05:08.197Z,55.11
2019-06-27T16:07:37.049Z,53.35
2019-06-27T16:10:07.135Z,52.33
2019-06-27T16:12:35.891Z,53.01
2019-06-27T16:15:10.485Z,52.65
2019-06-27T16:17:39.462Z,52.93
2019-06-27T16:20:10.965Z,54.07
2019-06-27T16:22:40.025Z,54.67
2019-06-27T16:25:10.045Z,55.12
2019-06-27T16:27:38.882Z,55.50
2019-06-27T16:30:10.451Z,53.63
2019-06-27T16:32:39.265Z,54.45
2019-06-27T16:35:08.485Z,57.20
2019-06-27T16:37:37.275Z,56.01
2019-06-27T16:40:08.540Z,56.66
2019-06-27T16:42:39.761Z,57.10
2019-06-27T16:45:13.498Z,58.33
2019-06-27T16:47:42.234Z,56.48
2019-06-27T16:50:11.646Z,56.74
2019-06-27T16:52:42.462Z,57.13
2019-06-27T16:55:11.515Z,57.36
2019-06-27T16:57:40.857Z,58.48
2019-06-27T17:00:14.002Z,58.11
2019-06-27T17:02:45.829Z,58.90
2019-06-27T17:05:14.864Z,57.63
2019-06-27T17:07:43.669Z,57.86
2019-06-27T17:10:13.961Z,58.33
2019-06-27T17:12:42.782Z,58.52
2019-06-27T17:15:12.103Z,58.85
2019-06-27T17:17:41.006Z,59.41
2019-06-27T17:20:10.942Z,59.41
2019-06-27T17:22:39.698Z,59.85
2019-06-27T17:25:10.051Z,59.80
2019-06-27T17:27:38.844Z,60.58
2019-06-27T17:30:13.160Z,60.09
2019-06-27T17:32:42.058Z,59.90
2019-06-27T17:35:12.292Z,59.17
2019-06-27T17:37:41.124Z,59.73
2019-06-27T17:40:11.316Z,60.00
2019-06-27T17:42:45.470Z,60.37
2019-06-27T17:45:14.514Z,60.61
2019-06-27T17:47:43.285Z,61.17
2019-06-27T17:50:13.342Z,62.01
2019-06-27T17:52:42.244Z,62.57
2019-06-27T17:55:15.350Z,61.98
2019-06-27T17:57:47.096Z,62.58
2019-06-27T18:00:16.578Z,61.82
2019-06-27T18:02:45.365Z,62.76
2019-06-27T18:05:17.326Z,63.13
2019-06-27T18:07:47.182Z,63.54
2019-06-27T18:10:16.711Z,63.03
2019-06-27T18:12:45.491Z,63.18
2019-06-27T18:15:14.219Z,63.47
2019-06-27T18:17:42.951Z,64.14
2019-06-27T18:20:12.498Z,64.68
2019-06-27T18:22:41.555Z,64.08
2019-06-27T18:25:10.508Z,64.21
2019-06-27T18:27:39.427Z,63.87
2019-06-27T18:30:09.131Z,65.20
2019-06-27T18:32:37.897Z,65.30
2019-06-27T18:35:07.239Z,65.45
2019-06-27T18:37:36.005Z,66.04
2019-06-27T18:40:06.165Z,66.25
2019-06-27T18:42:34.909Z,66.27
2019-06-27T18:45:05.344Z,66.18
2019-06-27T18:47:34.093Z,66.38
2019-06-27T18:50:03.165Z,66.15
2019-06-27T18:52:32.033Z,66.50
2019-06-27T18:55:00.806Z,67.48
2019-06-27T18:57:29.824Z,66.78
2019-06-27T18:59:58.676Z,67.07
2019-06-27T19:02:27.576Z,66.78
2019-06-27T19:04:56.591Z,66.89
2019-06-27T19:07:25.349Z,67.71
2019-06-27T19:09:55.270Z,67.21
2019-06-27T19:12:25.147Z,67.48
2019-06-27T19:14:54.324Z,66.93
2019-06-27T19:17:26.641Z,67.68
2019-06-27T19:19:55.293Z,67.88
2019-06-27T19:22:42.127Z,68.35
2019-06-27T19:25:12.693Z,68.37
2019-06-27T19:27:41.443Z,67.86
2019-06-27T19:30:12.355Z,68.29
2019-06-27T19:32:41.214Z,67.23
2019-06-27T19:35:10.287Z,68.19
2019-06-27T19:37:39.236Z,68.12
2019-06-27T19:40:09.409Z,68.55
2019-06-27T19:42:39.502Z,68.33
2019-06-27T19:45:08.509Z,68.38
2019-06-27T19:47:37.370Z,68.82
2019-06-27T19:50:07.563Z,68.42
2019-06-27T19:52:37.979Z,68.76
2019-06-27T19:55:09.762Z,69.02
2019-06-27T19:57:38.655Z,68.48
2019-06-27T20:00:07.804Z,68.73
2019-06-27T20:02:36.748Z,69.53
2019-06-27T20:05:07.425Z,69.44
2019-06-27T20:07:36.400Z,69.62
2019-06-27T20:10:11.552Z,69.63
2019-06-27T20:12:38.790Z,69.49
2019-06-27T20:15:08.188Z,70.31
2019-06-27T20:17:37.050Z,69.72
2019-06-27T20:20:07.070Z,70.01
2019-06-27T20:22:35.969Z,70.06
2019-06-27T20:25:07.233Z,70.18
2019-06-27T20:27:50.865Z,70.06
2019-06-27T20:30:24.692Z,70.37
2019-06-27T20:32:55.074Z,70.44
2019-06-27T20:35:24.485Z,71.21
2019-06-27T20:37:53.785Z,71.36
2019-06-27T20:40:24.673Z,71.40
2019-06-27T20:42:53.591Z,70.83
2019-06-27T20:45:23.440Z,70.95
2019-06-27T20:47:53.164Z,70.78
2019-06-27T20:50:22.013Z,71.15
2019-06-27T20:52:50.747Z,71.06
2019-06-27T20:55:19.551Z,71.04
2019-06-27T20:57:48.335Z,71.28
2019-06-27T21:00:18.097Z,71.43
2019-06-27T21:02:46.812Z,71.25
2019-06-27T21:05:17.676Z,71.10
2019-06-27T21:07:55.024Z,71.26
2019-06-27T21:10:24.827Z,71.02
2019-06-27T21:12:58.826Z,71.11
2019-06-27T21:15:39.391Z,71.53
2019-06-27T21:18:14.573Z,71.84
2019-06-27T21:20:44.494Z,71.79
2019-06-27T21:23:13.409Z,71.75
2019-06-27T21:25:42.171Z,71.53
2019-06-27T21:28:10.922Z,71.80
2019-06-27T21:30:39.669Z,71.66
2019-06-27T21:33:08.571Z,71.49
2019-06-27T21:35:38.069Z,71.78
2019-06-27T21:38:07.498Z,72.36
2019-06-27T21:40:37.864Z,72.25
2019-06-27T21:43:10.919Z,72.86
2019-06-27T21:45:39.934Z,73.16
2019-06-27T21:48:14.884Z,73.34
2019-06-27T21:50:45.386Z,73.54
2019-06-27T21:53:19.300Z,73.16
2019-06-27T21:55:51.879Z,73.42
2019-06-27T21:58:23.164Z,73.13
2019-06-27T22:00:54.196Z,73.22
2019-06-27T22:03:22.960Z,73.18
2019-06-27T22:05:51.618Z,73.27
2019-06-27T22:08:20.391Z,73.08
2019-06-27T22:10:49.153Z,72.83
2019-06-27T22:13:17.986Z,73.22
2019-06-27T22:15:47.709Z,73.24
2019-06-27T22:18:17.607Z,73.34
2019-06-27T22:20:46.823Z,73.58
2019-06-27T22:23:16.100Z,73.95
2019-06-27T22:25:45.600Z,73.52
2019-06-27T22:28:14.444Z,73.77
2019-06-27T22:30:43.901Z,73.89
2019-06-27T22:33:13.525Z,73.62
2019-06-27T22:35:42.352Z,74.00
2019-06-27T22:38:29.572Z,73.90
2019-06-27T22:41:16.620Z,74.82
2019-06-27T22:44:05.182Z,74.82
2019-06-27T22:46:53.633Z,74.75
2019-06-27T22:49:22.975Z,74.52
2019-06-27T22:52:11.624Z,74.61
2019-06-27T22:54:43.440Z,74.26
2019-06-27T22:57:12.261Z,74.17
2019-06-27T22:59:40.984Z,74.51
2019-06-27T23:02:09.728Z,74.08
2019-06-27T23:04:38.494Z,74.25
2019-06-27T23:07:07.293Z,73.69
2019-06-27T23:09:36.139Z,73.25
2019-06-27T23:12:05.265Z,73.09
2019-06-27T23:14:34.026Z,72.82
2019-06-27T23:17:02.801Z,73.28
2019-06-27T23:19:31.579Z,73.37
2019-06-27T23:22:00.245Z,73.49
2019-06-27T23:24:29.008Z,73.55
2019-06-27T23:26:57.868Z,73.81
2019-06-27T23:29:26.609Z,73.98
2019-06-27T23:31:55.366Z,74.42
2019-06-27T23:34:24.100Z,74.63
2019-06-27T23:36:52.911Z,74.33
2019-06-27T23:39:21.646Z,74.52
2019-06-27T23:41:50.401Z,74.23
2019-06-27T23:44:19.171Z,74.00
2019-06-27T23:46:47.915Z,74.00
2019-06-27T23:49:16.666Z,74.10
2019-06-27T23:51:45.399Z,74.33
2019-06-27T23:54:14.157Z,74.49
2019-06-27T23:56:42.901Z,74.43
2019-06-27T23:59:11.712Z,74.64
